createdAt,value
2023-09-29T00:00:17.369Z,15.54
2023-09-29T00:03:10.355Z,15.53
2023-09-29T00:05:42.665Z,15.51
2023-09-29T00:08:17.947Z,15.49
2023-09-29T00:10:51.318Z,15.46
2023-09-29T00:13:23.230Z,15.42
2023-09-29T00:15:55.156Z,15.40
2023-09-29T00:18:27.999Z,15.36
2023-09-29T00:20:59.940Z,15.32
2023-09-29T00:23:32.102Z,15.31
2023-09-29T00:26:04.512Z,15.28
2023-09-29T00:28:36.643Z,15.26
2023-09-29T00:31:10.046Z,15.22
2023-09-29T00:33:42.065Z,15.19
2023-09-29T00:36:14.417Z,15.17
2023-09-29T00:38:46.389Z,15.13
2023-09-29T00:41:18.697Z,15.12
2023-09-29T00:43:51.415Z,15.09
2023-09-29T00:46:23.553Z,15.04
2023-09-29T00:48:56.291Z,15.03
2023-09-29T00:51:29.338Z,15.01
2023-09-29T00:54:01.949Z,14.99
2023-09-29T00:56:34.938Z,14.96
2023-09-29T00:59:10.687Z,14.91
2023-09-29T01:01:43.078Z,14.88
2023-09-29T01:04:16.489Z,14.86
2023-09-29T01:06:50.390Z,14.83
2023-09-29T01:09:22.888Z,14.82
2023-09-29T01:11:54.829Z,14.79
2023-09-29T01:14:27.101Z,14.75
2023-09-29T01:16:59.471Z,14.72
2023-09-29T01:19:32.866Z,14.71
2023-09-29T01:22:05.335Z,14.71
2023-09-29T01:24:37.246Z,14.68
2023-09-29T01:27:09.120Z,14.64
2023-09-29T01:29:44.101Z,14.63
2023-09-29T01:32:16.231Z,14.60
2023-09-29T01:34:48.101Z,14.58
2023-09-29T01:37:22.678Z,14.55
2023-09-29T01:39:54.877Z,14.49
2023-09-29T01:42:26.752Z,14.47
2023-09-29T01:44:58.783Z,14.44
2023-09-29T01:47:31.613Z,14.42
2023-09-29T01:50:03.786Z,14.41
2023-09-29T01:52:35.748Z,14.40
2023-09-29T01:55:12.517Z,14.37
2023-09-29T01:57:42.979Z,14.34
2023-09-29T02:00:20.824Z,14.33
2023-09-29T02:02:54.665Z,14.29
2023-09-29T02:05:27.407Z,14.26
2023-09-29T02:08:04.471Z,14.24
2023-09-29T02:10:36.505Z,14.22
2023-09-29T02:13:09.094Z,14.20
2023-09-29T02:15:42.243Z,14.18
2023-09-29T02:18:14.269Z,14.17
2023-09-29T02:20:48.729Z,14.16
2023-09-29T02:23:21.325Z,14.14
2023-09-29T02:25:53.289Z,14.09
2023-09-29T02:28:26.307Z,14.07
2023-09-29T02:30:58.235Z,14.05
2023-09-29T02:33:33.188Z,14.04
2023-09-29T02:36:05.248Z,14.02
2023-09-29T02:38:37.756Z,14.00
2023-09-29T02:41:09.680Z,13.98
2023-09-29T02:43:41.657Z,13.97
2023-09-29T02:46:17.888Z,13.94
2023-09-29T02:48:50.082Z,13.91
2023-09-29T02:51:22.555Z,13.88
2023-09-29T02:53:56.112Z,13.84
2023-09-29T02:56:28.162Z,13.84
2023-09-29T02:59:00.728Z,13.82
2023-09-29T03:01:33.655Z,13.80
2023-09-29T03:04:08.598Z,13.79
2023-09-29T03:06:41.232Z,13.78
2023-09-29T03:09:14.896Z,13.77
2023-09-29T03:11:46.879Z,13.77
2023-09-29T03:14:19.037Z,13.75
2023-09-29T03:16:50.983Z,13.71
2023-09-29T03:19:22.926Z,13.67
2023-09-29T03:21:55.009Z,13.64
2023-09-29T03:24:28.659Z,13.62
2023-09-29T03:27:02.633Z,13.61
2023-09-29T03:29:36.654Z,13.59
2023-09-29T03:32:09.659Z,13.57
2023-09-29T03:34:42.882Z,13.55
2023-09-29T03:37:14.882Z,13.53
2023-09-29T03:39:49.176Z,13.50
2023-09-29T03:42:21.490Z,13.49
2023-09-29T03:44:53.532Z,13.48
2023-09-29T03:47:25.505Z,13.47
2023-09-29T03:49:57.727Z,13.45
2023-09-29T03:52:30.874Z,13.43
2023-09-29T03:55:02.883Z,13.41
2023-09-29T03:57:35.995Z,13.41
2023-09-29T04:00:13.262Z,13.40
2023-09-29T04:02:45.825Z,13.36
2023-09-29T04:05:18.608Z,13.33
2023-09-29T04:07:50.492Z,13.28
2023-09-29T04:10:22.737Z,13.25
2023-09-29T04:12:54.706Z,13.24
2023-09-29T04:15:28.475Z,13.24
2023-09-29T04:18:00.466Z,13.23
2023-09-29T04:20:32.849Z,13.21
2023-09-29T04:23:07.839Z,13.18
2023-09-29T04:25:39.959Z,13.17
2023-09-29T04:28:11.838Z,13.15
2023-09-29T04:30:43.807Z,13.14
2023-09-29T04:33:15.875Z,13.13
2023-09-29T04:35:47.954Z,13.12
2023-09-29T04:38:19.876Z,13.12
2023-09-29T04:40:51.914Z,13.12
2023-09-29T04:43:23.861Z,13.11
2023-09-29T04:45:55.736Z,13.12
2023-09-29T04:48:27.739Z,13.11
2023-09-29T04:51:00.188Z,13.08
2023-09-29T04:53:32.162Z,13.06
2023-09-29T04:56:04.616Z,13.07
2023-09-29T04:58:36.528Z,13.07
2023-09-29T05:01:08.454Z,13.07
2023-09-29T05:03:40.611Z,13.08
2023-09-29T05:06:12.744Z,13.08
2023-09-29T05:08:44.694Z,13.09
2023-09-29T05:11:23.934Z,13.10
2023-09-29T05:13:57.294Z,13.12
2023-09-29T05:16:29.209Z,13.26
2023-09-29T05:19:02.268Z,13.43
2023-09-29T05:21:35.737Z,13.49
2023-09-29T05:24:09.710Z,13.55
2023-09-29T05:26:41.711Z,13.60
2023-09-29T05:29:13.863Z,13.66
2023-09-29T05:31:46.624Z,13.71
2023-09-29T05:34:19.346Z,13.72
2023-09-29T05:36:51.298Z,13.73
2023-09-29T05:39:24.504Z,13.80
2023-09-29T05:41:56.423Z,13.94
2023-09-29T05:44:28.913Z,14.03
2023-09-29T05:47:00.972Z,14.09
2023-09-29T05:49:33.704Z,14.16
2023-09-29T05:52:05.847Z,14.21
2023-09-29T05:54:37.895Z,14.26
2023-09-29T05:57:09.936Z,14.30
2023-09-29T05:59:42.092Z,14.34
2023-09-29T06:02:19.243Z,14.40
2023-09-29T06:04:51.560Z,14.46
2023-09-29T06:07:24.038Z,14.53
2023-09-29T06:09:55.935Z,14.59
2023-09-29T06:12:27.836Z,14.66
2023-09-29T06:14:59.833Z,14.72
2023-09-29T06:17:31.968Z,14.79
2023-09-29T06:20:05.378Z,14.86
2023-09-29T06:22:37.269Z,14.93
2023-09-29T06:25:10.617Z,15.00
2023-09-29T06:27:42.784Z,15.06
2023-09-29T06:30:15.410Z,15.14
2023-09-29T06:32:47.513Z,15.21
2023-09-29T06:35:19.608Z,15.29
2023-09-29T06:37:52.624Z,15.38
2023-09-29T06:40:25.252Z,15.46
2023-09-29T06:42:57.162Z,15.55
2023-09-29T06:45:51.798Z,15.65
2023-09-29T06:48:24.921Z,15.75
2023-09-29T06:51:00.576Z,15.85
2023-09-29T06:53:33.531Z,15.95
2023-09-29T06:56:06.130Z,16.04
2023-09-29T06:58:38.161Z,16.15
2023-09-29T07:01:10.241Z,16.27
2023-09-29T07:03:42.430Z,16.40
2023-09-29T07:06:15.109Z,16.53
2023-09-29T07:08:47.499Z,16.67
2023-09-29T07:11:19.954Z,16.81
2023-09-29T07:13:53.164Z,16.95
2023-09-29T07:16:25.627Z,17.08
2023-09-29T07:19:00.416Z,17.23
2023-09-29T07:21:32.379Z,17.37
2023-09-29T07:24:04.399Z,17.52
2023-09-29T07:26:36.653Z,17.68
2023-09-29T07:29:08.794Z,17.84
2023-09-29T07:31:47.924Z,18.00
2023-09-29T07:34:19.880Z,18.18
2023-09-29T07:36:51.964Z,18.34
2023-09-29T07:39:23.965Z,18.52
2023-09-29T07:41:56.827Z,18.69
2023-09-29T07:44:28.822Z,18.86
2023-09-29T07:47:01.194Z,19.02
2023-09-29T07:49:34.512Z,19.23
2023-09-29T07:52:06.740Z,19.89
2023-09-29T07:54:38.953Z,22.28
2023-09-29T07:57:13.820Z,25.02
2023-09-29T07:59:48.152Z,27.46
2023-09-29T08:02:40.889Z,29.75
2023-09-29T08:05:33.345Z,31.96
2023-09-29T08:08:26.598Z,33.90
2023-09-29T08:11:19.017Z,35.55
2023-09-29T08:14:11.657Z,37.02
2023-09-29T08:17:04.159Z,38.56
2023-09-29T08:19:56.405Z,40.08
2023-09-29T08:22:51.091Z,41.33
2023-09-29T08:25:44.560Z,42.62
2023-09-29T08:28:36.721Z,43.68
2023-09-29T08:31:19.192Z,44.52
2023-09-29T08:34:11.823Z,45.37
2023-09-29T08:37:04.492Z,46.32
2023-09-29T08:39:56.728Z,47.06
2023-09-29T08:42:39.207Z,47.67
2023-09-29T08:45:32.680Z,48.29
2023-09-29T08:48:25.282Z,48.49
2023-09-29T08:51:18.526Z,46.38
2023-09-29T08:54:11.936Z,43.76
2023-09-29T08:57:07.163Z,41.64
2023-09-29T09:00:02.062Z,40.00
2023-09-29T09:02:56.183Z,38.82
2023-09-29T09:05:49.182Z,37.92
2023-09-29T09:08:41.973Z,37.24
2023-09-29T09:11:25.598Z,36.67
2023-09-29T09:14:01.113Z,36.28
2023-09-29T09:16:53.513Z,35.97
2023-09-29T09:19:52.317Z,35.72
2023-09-29T09:22:47.275Z,35.43
2023-09-29T09:25:44.396Z,35.30
2023-09-29T09:28:23.451Z,35.26
2023-09-29T09:31:06.253Z,35.21
2023-09-29T09:33:41.448Z,35.22
2023-09-29T09:36:33.696Z,35.30
2023-09-29T09:39:13.274Z,35.40
2023-09-29T09:42:07.081Z,35.52
2023-09-29T09:45:00.129Z,35.59
2023-09-29T09:47:54.046Z,35.70
2023-09-29T09:50:48.576Z,35.88
2023-09-29T09:53:41.554Z,36.03
2023-09-29T09:56:43.334Z,36.17
2023-09-29T09:59:36.089Z,36.45
2023-09-29T10:02:28.866Z,36.61
2023-09-29T10:05:24.925Z,36.88
2023-09-29T10:08:31.546Z,37.36
2023-09-29T10:11:29.442Z,37.83
2023-09-29T10:14:22.684Z,38.51
2023-09-29T10:17:08.351Z,39.21
2023-09-29T10:20:00.881Z,40.06
2023-09-29T10:23:04.225Z,41.08
2023-09-29T10:26:05.459Z,42.23
2023-09-29T10:29:10.264Z,43.12
2023-09-29T10:32:11.799Z,43.79
2023-09-29T10:35:07.030Z,43.73
2023-09-29T10:38:05.326Z,43.87
2023-09-29T10:40:40.259Z,44.19
2023-09-29T10:43:37.106Z,44.76
2023-09-29T10:46:30.450Z,45.32
2023-09-29T10:49:08.978Z,45.58
2023-09-29T10:51:41.110Z,45.83
2023-09-29T10:54:16.036Z,46.00
2023-09-29T10:57:09.515Z,46.12
2023-09-29T11:00:03.120Z,46.44
2023-09-29T11:02:55.580Z,46.76
2023-09-29T11:05:55.158Z,46.98
2023-09-29T11:08:34.237Z,47.12
2023-09-29T11:11:15.682Z,47.03
2023-09-29T11:13:59.982Z,46.92
2023-09-29T11:16:31.986Z,46.85
2023-09-29T11:19:26.570Z,47.00
2023-09-29T11:22:19.004Z,47.09
2023-09-29T11:25:19.329Z,47.18
2023-09-29T11:28:15.040Z,47.26
2023-09-29T11:30:49.947Z,47.27
2023-09-29T11:33:39.105Z,47.44
2023-09-29T11:36:31.509Z,47.57
2023-09-29T11:39:24.190Z,47.59
2023-09-29T11:42:03.154Z,47.64
2023-09-29T11:44:55.585Z,47.72
2023-09-29T11:47:48.302Z,47.69
2023-09-29T11:50:26.722Z,47.61
2023-09-29T11:53:11.103Z,47.57
2023-09-29T11:56:04.467Z,47.63
2023-09-29T11:58:56.677Z,47.44
2023-09-29T12:01:49.128Z,47.09
2023-09-29T12:04:41.405Z,46.88
2023-09-29T12:07:34.080Z,46.93
2023-09-29T12:10:26.735Z,47.05
2023-09-29T12:13:19.061Z,47.22
2023-09-29T12:16:11.764Z,47.09
2023-09-29T12:19:04.130Z,46.89
2023-09-29T12:21:56.746Z,46.71
2023-09-29T12:24:31.768Z,46.63
2023-09-29T12:27:10.258Z,46.48
2023-09-29T12:29:42.526Z,46.35
2023-09-29T12:32:14.751Z,46.24
2023-09-29T12:35:09.216Z,46.09
2023-09-29T12:38:04.364Z,45.92
2023-09-29T12:40:57.071Z,45.99
2023-09-29T12:43:32.237Z,45.85
2023-09-29T12:46:06.855Z,45.81
2023-09-29T12:48:59.785Z,45.17
2023-09-29T12:52:00.665Z,43.45
2023-09-29T12:54:57.981Z,42.50
2023-09-29T12:57:50.557Z,41.60
2023-09-29T13:00:42.845Z,40.48
2023-09-29T13:03:36.919Z,39.22
2023-09-29T13:06:29.284Z,38.01
2023-09-29T13:09:05.299Z,37.07
2023-09-29T13:11:37.378Z,36.26
2023-09-29T13:14:16.883Z,35.55
2023-09-29T13:17:08.941Z,34.85
2023-09-29T13:20:01.170Z,34.14
2023-09-29T13:22:33.226Z,33.60
2023-09-29T13:25:25.457Z,33.10
2023-09-29T13:28:17.681Z,32.64
2023-09-29T13:30:54.636Z,32.27
2023-09-29T13:33:47.476Z,31.85
2023-09-29T13:36:39.887Z,31.45
2023-09-29T13:39:32.202Z,31.12
2023-09-29T13:42:24.428Z,30.85
2023-09-29T13:45:10.159Z,30.60
2023-09-29T13:48:04.603Z,30.38
2023-09-29T13:50:57.030Z,30.13
2023-09-29T13:53:51.341Z,29.87
2023-09-29T13:56:28.627Z,29.64
2023-09-29T13:59:20.911Z,29.43
2023-09-29T14:02:13.240Z,29.22
2023-09-29T14:05:07.375Z,29.05
2023-09-29T14:07:56.620Z,28.87
2023-09-29T14:10:49.024Z,28.74
2023-09-29T14:13:32.670Z,28.61
2023-09-29T14:16:24.933Z,28.45
2023-09-29T14:19:17.294Z,28.33
2023-09-29T14:21:49.766Z,28.14
2023-09-29T14:24:42.191Z,28.03
2023-09-29T14:27:34.447Z,27.94
2023-09-29T14:30:10.897Z,27.85
2023-09-29T14:33:05.732Z,27.73
2023-09-29T14:35:58.288Z,27.62
2023-09-29T14:38:41.401Z,27.56
2023-09-29T14:41:34.087Z,27.51
2023-09-29T14:44:26.367Z,27.44
2023-09-29T14:47:19.041Z,27.39
2023-09-29T14:50:12.467Z,27.33
2023-09-29T14:53:04.843Z,27.26
2023-09-29T14:55:45.793Z,27.20
2023-09-29T14:58:38.972Z,27.15
2023-09-29T15:01:31.369Z,27.10
2023-09-29T15:04:13.241Z,27.05
2023-09-29T15:07:06.015Z,27.00
2023-09-29T15:09:58.111Z,26.96
2023-09-29T15:12:39.152Z,26.88
2023-09-29T15:15:31.564Z,26.81
2023-09-29T15:18:24.108Z,26.73
2023-09-29T15:21:16.606Z,26.64
2023-09-29T15:24:09.595Z,26.54
2023-09-29T15:27:01.896Z,26.40
2023-09-29T15:29:54.158Z,26.26
2023-09-29T15:32:46.880Z,26.18
2023-09-29T15:35:39.619Z,26.13
2023-09-29T15:38:31.828Z,26.09
2023-09-29T15:41:24.065Z,26.06
2023-09-29T15:44:17.340Z,26.03
2023-09-29T15:47:09.603Z,25.99
2023-09-29T15:49:51.758Z,25.96
2023-09-29T15:52:45.363Z,25.90
2023-09-29T15:55:20.551Z,25.86
2023-09-29T15:58:13.321Z,25.81
2023-09-29T16:00:45.493Z,25.75
2023-09-29T16:03:38.002Z,25.65
2023-09-29T16:06:30.591Z,25.54
2023-09-29T16:09:22.936Z,25.43
2023-09-29T16:12:15.633Z,25.32
2023-09-29T16:15:04.439Z,25.23
2023-09-29T16:17:46.339Z,25.14
2023-09-29T16:20:18.639Z,25.03
2023-09-29T16:23:11.120Z,24.92
2023-09-29T16:26:04.224Z,24.79
2023-09-29T16:28:56.934Z,24.65
2023-09-29T16:31:49.200Z,24.48
2023-09-29T16:34:41.431Z,24.34
2023-09-29T16:37:34.454Z,24.21
2023-09-29T16:40:28.923Z,24.13
2023-09-29T16:43:19.959Z,24.05
2023-09-29T16:45:57.200Z,23.96
2023-09-29T16:48:53.914Z,23.85
2023-09-29T16:51:47.011Z,23.75
2023-09-29T16:54:40.326Z,23.62
2023-09-29T16:57:33.756Z,23.53
2023-09-29T17:00:26.299Z,23.41
2023-09-29T17:03:18.795Z,23.32
2023-09-29T17:05:53.604Z,23.23
2023-09-29T17:08:28.592Z,23.12
2023-09-29T17:11:21.395Z,23.00
2023-09-29T17:14:14.395Z,22.88
2023-09-29T17:17:04.718Z,22.77
2023-09-29T17:19:57.194Z,22.68
2023-09-29T17:22:49.471Z,22.58
2023-09-29T17:25:33.052Z,22.48
2023-09-29T17:28:08.096Z,22.40
2023-09-29T17:31:00.410Z,22.31
2023-09-29T17:33:52.771Z,22.20
2023-09-29T17:36:27.895Z,22.12
2023-09-29T17:39:20.289Z,22.02
2023-09-29T17:42:12.755Z,21.86
2023-09-29T17:44:47.812Z,21.72
2023-09-29T17:47:22.757Z,21.60
2023-09-29T17:50:13.497Z,21.47
2023-09-29T17:52:56.775Z,21.32
2023-09-29T17:55:35.543Z,21.22
2023-09-29T17:58:10.451Z,21.13
2023-09-29T18:00:45.830Z,21.02
2023-09-29T18:03:39.518Z,20.93
2023-09-29T18:06:32.615Z,20.83
2023-09-29T18:09:25.073Z,20.73
2023-09-29T18:12:17.541Z,20.60
2023-09-29T18:14:53.081Z,20.52
2023-09-29T18:17:46.190Z,20.44
2023-09-29T18:20:28.152Z,20.35
2023-09-29T18:23:03.444Z,20.26
2023-09-29T18:25:37.299Z,20.18
2023-09-29T18:28:32.671Z,20.09
2023-09-29T18:31:26.441Z,20.01
2023-09-29T18:34:09.216Z,19.93
2023-09-29T18:36:55.461Z,19.85
2023-09-29T18:39:48.269Z,19.74
2023-09-29T18:42:21.028Z,19.65
2023-09-29T18:44:54.059Z,19.59
2023-09-29T18:47:31.025Z,19.53
2023-09-29T18:50:14.247Z,19.48
2023-09-29T18:52:57.608Z,19.41
2023-09-29T18:55:34.968Z,19.34
2023-09-29T18:58:13.095Z,19.28
2023-09-29T19:00:49.428Z,19.21
2023-09-29T19:03:28.012Z,19.14
2023-09-29T19:06:22.299Z,19.07
2023-09-29T19:08:57.670Z,19.02
2023-09-29T19:11:33.396Z,18.96
2023-09-29T19:14:12.147Z,18.92
2023-09-29T19:16:47.186Z,18.86
2023-09-29T19:19:26.026Z,18.80
2023-09-29T19:22:02.026Z,18.73
2023-09-29T19:24:42.415Z,18.66
2023-09-29T19:27:16.186Z,18.60
2023-09-29T19:29:53.808Z,18.55
2023-09-29T19:32:34.455Z,18.49
2023-09-29T19:35:10.940Z,18.44
2023-09-29T19:37:44.945Z,18.37
2023-09-29T19:40:18.643Z,18.32
2023-09-29T19:42:55.653Z,18.28
2023-09-29T19:45:28.422Z,18.24
2023-09-29T19:48:01.166Z,18.21
2023-09-29T19:50:33.463Z,18.16
2023-09-29T19:53:08.964Z,18.13
2023-09-29T19:55:43.241Z,18.09
2023-09-29T19:58:18.569Z,18.06
2023-09-29T20:00:53.483Z,18.02
2023-09-29T20:03:25.904Z,17.96
2023-09-29T20:05:58.329Z,17.91
2023-09-29T20:08:51.714Z,17.84
2023-09-29T20:11:26.371Z,17.78
2023-09-29T20:13:59.682Z,17.74
2023-09-29T20:16:32.910Z,17.68
2023-09-29T20:19:08.315Z,17.63
2023-09-29T20:21:43.484Z,17.57
2023-09-29T20:24:19.677Z,17.53
2023-09-29T20:26:53.114Z,17.50
2023-09-29T20:29:25.427Z,17.44
2023-09-29T20:32:01.332Z,17.40
2023-09-29T20:34:33.378Z,17.36
2023-09-29T20:37:05.500Z,17.33
2023-09-29T20:39:39.168Z,17.31
2023-09-29T20:42:13.871Z,17.28
2023-09-29T20:44:46.642Z,17.25
2023-09-29T20:47:18.676Z,17.21
2023-09-29T20:49:51.305Z,17.16
2023-09-29T20:52:24.804Z,17.12
2023-09-29T20:54:57.772Z,17.09
2023-09-29T20:57:30.152Z,17.07
2023-09-29T21:00:02.517Z,17.04
2023-09-29T21:02:34.876Z,17.00
2023-09-29T21:05:07.928Z,16.96
2023-09-29T21:07:39.968Z,16.93
2023-09-29T21:10:14.439Z,16.90
2023-09-29T21:12:46.376Z,16.85
2023-09-29T21:15:18.507Z,16.83
2023-09-29T21:17:50.606Z,16.81
2023-09-29T21:20:22.956Z,16.78
2023-09-29T21:22:54.938Z,16.74
2023-09-29T21:25:27.388Z,16.71
2023-09-29T21:27:59.586Z,16.68
2023-09-29T21:30:32.272Z,16.64
2023-09-29T21:33:04.571Z,16.62
2023-09-29T21:35:39.123Z,16.60
2023-09-29T21:38:14.410Z,16.55
2023-09-29T21:40:46.372Z,16.51
2023-09-29T21:43:18.554Z,16.46
2023-09-29T21:45:50.532Z,16.42
2023-09-29T21:48:22.644Z,16.39
2023-09-29T21:50:54.884Z,16.37
2023-09-29T21:53:26.910Z,16.34
2023-09-29T21:55:58.810Z,16.29
2023-09-29T21:58:31.650Z,16.27
2023-09-29T22:01:04.067Z,16.25
2023-09-29T22:03:37.881Z,16.22
2023-09-29T22:06:10.338Z,16.20
2023-09-29T22:08:43.641Z,16.17
2023-09-29T22:11:15.894Z,16.14
2023-09-29T22:13:48.107Z,16.10
2023-09-29T22:16:20.323Z,16.07
2023-09-29T22:18:52.974Z,16.04
2023-09-29T22:21:25.930Z,16.01
2023-09-29T22:23:58.283Z,15.98
2023-09-29T22:26:30.513Z,15.95
2023-09-29T22:29:03.082Z,15.92
2023-09-29T22:31:35.376Z,15.91
2023-09-29T22:34:07.842Z,15.90
2023-09-29T22:36:39.925Z,15.86
2023-09-29T22:39:12.012Z,15.81
2023-09-29T22:41:45.338Z,15.78
2023-09-29T22:44:17.350Z,15.76
2023-09-29T22:46:51.186Z,15.74
2023-09-29T22:49:23.986Z,15.72
2023-09-29T22:51:55.914Z,15.69
2023-09-29T22:54:27.926Z,15.67
2023-09-29T22:56:59.857Z,15.65
2023-09-29T22:59:31.975Z,15.63
2023-09-29T23:02:12.676Z,15.60
2023-09-29T23:04:44.607Z,15.55
2023-09-29T23:07:16.538Z,15.51
2023-09-29T23:09:48.495Z,15.48
2023-09-29T23:12:20.551Z,15.45
2023-09-29T23:14:52.601Z,15.41
2023-09-29T23:17:24.566Z,15.38
2023-09-29T23:19:56.460Z,15.35
2023-09-29T23:22:29.363Z,15.32
2023-09-29T23:25:01.330Z,15.30
2023-09-29T23:27:34.591Z,15.27
2023-09-29T23:30:09.930Z,15.24
2023-09-29T23:32:42.025Z,15.20
2023-09-29T23:35:14.231Z,15.18
2023-09-29T23:37:46.322Z,15.17
2023-09-29T23:40:18.865Z,15.15
2023-09-29T23:42:50.970Z,15.13
2023-09-29T23:45:22.995Z,15.12
2023-09-29T23:47:54.936Z,15.10
2023-09-29T23:50:27.374Z,15.07
2023-09-29T23:52:59.361Z,15.07
2023-09-29T23:55:31.364Z,15.06
2023-09-29T23:58:03.418Z,15.04
